createdAt,value
2018-02-11T00:00:43.306Z,998.15
2018-02-11T00:01:43.906Z,998.10
2018-02-11T00:02:44.500Z,998.14
2018-02-11T00:03:45.098Z,997.99
2018-02-11T00:04:45.683Z,998.08
2018-02-11T00:05:46.297Z,998.01
2018-02-11T00:06:46.884Z,998.06
2018-02-11T00:07:47.480Z,998.01
2018-02-11T00:08:48.080Z,998.01
2018-02-11T00:09:48.683Z,997.99
2018-02-11T00:10:49.286Z,997.95
2018-02-11T00:11:49.878Z,997.83
2018-02-11T00:12:50.474Z,997.94
2018-02-11T00:13:51.067Z,997.86
2018-02-11T00:14:51.666Z,997.82
2018-02-11T00:15:52.267Z,997.81
2018-02-11T00:16:52.868Z,997.76
2018-02-11T00:17:53.467Z,997.74
2018-02-11T00:18:54.066Z,997.73
2018-02-11T00:19:54.655Z,997.63
2018-02-11T00:20:55.245Z,997.69
2018-02-11T00:21:55.847Z,997.60
2018-02-11T00:22:56.444Z,997.62
2018-02-11T00:23:57.041Z,997.57
2018-02-11T00:24:57.666Z,997.53
2018-02-11T00:25:58.235Z,997.57
2018-02-11T00:26:58.835Z,997.53
2018-02-11T00:27:59.430Z,997.50
2018-02-11T00:29:00.032Z,997.49
2018-02-11T00:30:00.648Z,997.44
2018-02-11T00:31:01.242Z,997.41
2018-02-11T00:32:01.835Z,997.38
2018-02-11T00:33:02.432Z,997.44
2018-02-11T00:34:03.022Z,997.36
2018-02-11T00:35:03.620Z,997.33
2018-02-11T00:36:04.222Z,997.26
2018-02-11T00:37:04.820Z,997.29
2018-02-11T00:38:05.423Z,997.24
2018-02-11T00:39:06.015Z,997.21
2018-02-11T00:40:06.606Z,997.18
2018-02-11T00:41:07.233Z,997.17
2018-02-11T00:42:07.818Z,997.19
2018-02-11T00:43:08.423Z,997.05
2018-02-11T00:44:09.021Z,997.09
2018-02-11T00:45:09.621Z,997.07
2018-02-11T00:46:10.203Z,997.08
2018-02-11T00:47:10.808Z,997.02
2018-02-11T00:48:11.400Z,996.95
2018-02-11T00:49:12.003Z,996.89
2018-02-11T00:50:12.606Z,996.92
2018-02-11T00:51:13.213Z,996.89
2018-02-11T00:52:13.821Z,996.95
2018-02-11T00:53:14.424Z,996.92
2018-02-11T00:54:15.016Z,996.85
2018-02-11T00:55:15.615Z,996.85
2018-02-11T00:56:16.208Z,996.86
2018-02-11T00:57:16.811Z,996.86
2018-02-11T00:58:17.422Z,996.77
2018-02-11T00:59:18.022Z,996.79
2018-02-11T01:00:18.620Z,996.72
2018-02-11T01:01:19.230Z,996.68
2018-02-11T01:02:19.830Z,996.73
2018-02-11T01:03:20.431Z,996.68
2018-02-11T01:04:21.020Z,996.73
2018-02-11T01:05:21.648Z,996.63
2018-02-11T01:06:22.220Z,996.59
2018-02-11T01:07:22.823Z,996.55
2018-02-11T01:08:23.422Z,996.49
2018-02-11T01:09:24.004Z,996.47
2018-02-11T01:10:24.603Z,996.48
2018-02-11T01:11:25.197Z,996.46
2018-02-11T01:12:25.791Z,996.36
2018-02-11T01:13:26.391Z,996.27
2018-02-11T01:14:26.984Z,996.29
2018-02-11T01:15:27.592Z,996.22
2018-02-11T01:16:28.185Z,996.10
2018-02-11T01:17:28.774Z,996.04
2018-02-11T01:18:29.371Z,996.05
2018-02-11T01:19:29.968Z,996.06
2018-02-11T01:20:30.582Z,995.96
2018-02-11T01:21:31.166Z,996.01
2018-02-11T01:22:31.767Z,995.92
2018-02-11T01:23:32.365Z,995.90
2018-02-11T01:24:32.952Z,995.90
2018-02-11T01:25:33.547Z,995.84
2018-02-11T01:26:34.143Z,995.78
2018-02-11T01:27:34.740Z,995.78
2018-02-11T01:28:35.334Z,995.75
2018-02-11T01:29:35.925Z,995.68
2018-02-11T01:30:36.537Z,995.57
2018-02-11T01:31:37.123Z,995.60
2018-02-11T01:32:37.722Z,995.54
2018-02-11T01:33:38.324Z,995.45
2018-02-11T01:34:38.922Z,995.49
2018-02-11T01:35:39.509Z,995.43
2018-02-11T01:36:40.145Z,995.35
2018-02-11T01:37:40.712Z,995.40
2018-02-11T01:38:41.309Z,995.40
2018-02-11T01:39:41.900Z,995.35
2018-02-11T01:40:42.505Z,995.41
2018-02-11T01:41:43.103Z,995.30
2018-02-11T01:42:43.699Z,995.36
2018-02-11T01:43:44.294Z,995.25
2018-02-11T01:44:44.888Z,995.23
2018-02-11T01:45:45.510Z,995.20
2018-02-11T01:46:46.097Z,995.16
2018-02-11T01:47:46.682Z,995.18
2018-02-11T01:48:47.281Z,995.14
2018-02-11T01:49:47.876Z,995.23
2018-02-11T01:50:48.476Z,995.20
2018-02-11T01:51:49.076Z,995.13
2018-02-11T01:52:49.677Z,995.08
2018-02-11T01:53:50.289Z,995.10
2018-02-11T01:54:50.879Z,995.01
2018-02-11T01:55:51.498Z,995.03
2018-02-11T01:56:52.076Z,994.98
2018-02-11T01:57:52.674Z,994.96
2018-02-11T01:58:53.272Z,994.98
2018-02-11T01:59:53.884Z,995.00
2018-02-11T02:00:54.470Z,994.97
2018-02-11T02:01:55.054Z,994.93
2018-02-11T02:02:55.646Z,994.93
2018-02-11T02:03:56.254Z,994.77
2018-02-11T02:04:56.846Z,994.77
2018-02-11T02:05:57.436Z,994.68
2018-02-11T02:06:58.031Z,994.77
2018-02-11T02:07:58.629Z,994.60
2018-02-11T02:08:59.225Z,994.56
2018-02-11T02:09:59.859Z,994.56
2018-02-11T02:11:00.432Z,994.53
2018-02-11T02:12:01.035Z,994.52
2018-02-11T02:13:01.633Z,994.48
2018-02-11T02:14:02.228Z,994.34
2018-02-11T02:15:02.830Z,994.48
2018-02-11T02:16:03.427Z,994.35
2018-02-11T02:17:04.033Z,994.35
2018-02-11T02:18:04.633Z,994.31
2018-02-11T02:19:05.261Z,994.25
2018-02-11T02:20:05.840Z,994.32
2018-02-11T02:21:06.432Z,994.28
2018-02-11T02:22:07.025Z,994.28
2018-02-11T02:23:07.619Z,994.23
2018-02-11T02:24:08.211Z,994.14
2018-02-11T02:25:08.808Z,994.17
2018-02-11T02:26:09.399Z,994.07
2018-02-11T02:27:09.996Z,994.13
2018-02-11T02:28:10.590Z,994.13
2018-02-11T02:29:11.190Z,994.04
2018-02-11T02:30:11.791Z,994.07
2018-02-11T02:31:12.384Z,994.02
2018-02-11T02:32:12.980Z,994.00
2018-02-11T02:33:13.573Z,993.90
2018-02-11T02:34:14.158Z,994.04
2018-02-11T02:35:14.757Z,993.88
2018-02-11T02:36:15.362Z,993.83
2018-02-11T02:37:15.938Z,993.82
2018-02-11T02:38:16.540Z,993.89
2018-02-11T02:39:17.141Z,993.74
2018-02-11T02:40:17.734Z,993.83
2018-02-11T02:41:18.324Z,993.82
2018-02-11T02:42:18.927Z,993.73
2018-02-11T02:43:19.524Z,993.66
2018-02-11T02:44:20.122Z,993.65
2018-02-11T02:45:20.723Z,993.52
2018-02-11T02:46:21.323Z,993.61
2018-02-11T02:47:21.911Z,993.51
2018-02-11T02:48:22.503Z,993.48
2018-02-11T02:49:23.097Z,993.53
2018-02-11T02:50:23.695Z,993.27
2018-02-11T02:51:24.304Z,993.46
2018-02-11T02:52:24.964Z,993.36
2018-02-11T02:53:25.548Z,993.21
2018-02-11T02:54:26.107Z,993.19
2018-02-11T02:55:26.711Z,993.20
2018-02-11T02:56:27.310Z,993.28
2018-02-11T02:57:27.912Z,993.12
2018-02-11T02:58:28.499Z,992.87
2018-02-11T02:59:29.096Z,993.08
2018-02-11T03:00:29.685Z,993.08
2018-02-11T03:01:30.301Z,992.97
2018-02-11T03:02:30.883Z,992.97
2018-02-11T03:03:31.475Z,992.93
2018-02-11T03:04:32.069Z,992.93
2018-02-11T03:05:32.676Z,993.04
2018-02-11T03:06:33.282Z,992.78
2018-02-11T03:07:33.872Z,992.89
2018-02-11T03:08:34.708Z,992.83
2018-02-11T03:09:35.299Z,992.77
2018-02-11T03:10:35.894Z,992.76
2018-02-11T03:11:36.491Z,992.70
2018-02-11T03:12:37.090Z,992.64
2018-02-11T03:13:37.680Z,992.46
2018-02-11T03:14:38.281Z,992.51
2018-02-11T03:15:38.881Z,992.45
2018-02-11T03:16:39.474Z,992.53
2018-02-11T03:17:40.063Z,992.35
2018-02-11T03:18:40.656Z,992.36
2018-02-11T03:19:41.250Z,992.41
2018-02-11T03:20:41.849Z,992.36
2018-02-11T03:21:42.437Z,992.09
2018-02-11T03:22:43.031Z,992.26
2018-02-11T03:23:43.619Z,992.22
2018-02-11T03:24:44.223Z,992.14
2018-02-11T03:25:44.826Z,992.14
2018-02-11T03:26:45.428Z,992.15
2018-02-11T03:27:46.017Z,991.64
2018-02-11T03:28:46.603Z,992.10
2018-02-11T03:29:47.206Z,992.07
2018-02-11T03:30:47.804Z,991.99
2018-02-11T03:31:48.410Z,991.91
2018-02-11T03:32:49.004Z,991.76
2018-02-11T03:33:49.604Z,991.81
2018-02-11T03:34:50.198Z,991.67
2018-02-11T03:35:50.790Z,991.65
2018-02-11T03:36:51.402Z,991.68
2018-02-11T03:37:51.992Z,991.64
2018-02-11T03:38:52.601Z,991.67
2018-02-11T03:39:53.201Z,991.72
2018-02-11T03:40:53.805Z,991.66
2018-02-11T03:41:54.398Z,991.64
2018-02-11T03:42:54.993Z,991.57
2018-02-11T03:43:55.596Z,991.58
2018-02-11T03:44:56.185Z,991.58
2018-02-11T03:45:56.777Z,991.45
2018-02-11T03:46:57.374Z,991.59
2018-02-11T03:47:57.973Z,991.37
2018-02-11T03:48:58.569Z,991.58
2018-02-11T03:49:59.166Z,991.51
2018-02-11T03:50:59.763Z,991.57
2018-02-11T03:52:00.373Z,991.56
2018-02-11T03:53:00.981Z,991.46
2018-02-11T03:54:01.566Z,991.51
2018-02-11T03:55:02.165Z,991.57
2018-02-11T03:56:02.765Z,991.51
2018-02-11T03:57:03.344Z,991.13
2018-02-11T03:58:03.942Z,991.54
2018-02-11T03:59:04.542Z,991.41
2018-02-11T04:00:05.138Z,991.48
2018-02-11T04:01:05.761Z,991.56
2018-02-11T04:02:06.338Z,991.47
2018-02-11T04:03:06.933Z,991.40
2018-02-11T04:04:07.537Z,991.48
2018-02-11T04:05:08.142Z,991.45
2018-02-11T04:06:08.736Z,991.44
2018-02-11T04:07:09.326Z,991.33
2018-02-11T04:08:09.925Z,991.44
2018-02-11T04:09:10.518Z,991.37
2018-02-11T04:10:11.116Z,991.26
2018-02-11T04:11:11.742Z,991.37
2018-02-11T04:12:12.314Z,991.26
2018-02-11T04:13:12.908Z,991.18
2018-02-11T04:14:13.499Z,991.20
2018-02-11T04:15:14.117Z,991.16
2018-02-11T04:16:14.703Z,991.06
2018-02-11T04:17:15.319Z,991.22
2018-02-11T04:18:15.920Z,991.11
2018-02-11T04:19:16.545Z,990.99
2018-02-11T04:20:17.149Z,990.93
2018-02-11T04:21:17.752Z,990.95
2018-02-11T04:22:18.376Z,990.91
2018-02-11T04:23:18.978Z,991.01
2018-02-11T04:24:19.580Z,990.85
2018-02-11T04:25:20.186Z,990.82
2018-02-11T04:26:20.785Z,990.83
2018-02-11T04:27:21.388Z,990.73
2018-02-11T04:28:22.012Z,990.62
2018-02-11T04:29:22.616Z,990.76
2018-02-11T04:30:23.217Z,990.68
2018-02-11T04:31:23.820Z,990.69
2018-02-11T04:32:24.422Z,990.65
2018-02-11T04:33:25.029Z,990.65
2018-02-11T04:34:25.635Z,990.53
2018-02-11T04:35:26.219Z,990.52
2018-02-11T04:36:26.818Z,990.86
2018-02-11T04:37:27.413Z,990.38
2018-02-11T04:38:28.006Z,990.59
2018-02-11T04:39:28.607Z,990.44
2018-02-11T04:40:29.207Z,990.59
2018-02-11T04:41:29.810Z,990.47
2018-02-11T04:42:30.408Z,990.38
2018-02-11T04:43:31.005Z,990.46
2018-02-11T04:44:31.605Z,990.41
2018-02-11T04:45:32.203Z,990.43
2018-02-11T04:46:32.802Z,990.29
2018-02-11T04:47:33.391Z,990.52
2018-02-11T04:48:33.984Z,990.21
2018-02-11T04:49:34.573Z,990.25
2018-02-11T04:50:35.159Z,990.26
2018-02-11T04:51:35.749Z,990.22
2018-02-11T04:52:36.341Z,990.32
2018-02-11T04:53:36.936Z,990.23
2018-02-11T04:54:37.533Z,990.19
2018-02-11T04:55:38.135Z,990.29
2018-02-11T04:56:38.743Z,990.25
2018-02-11T04:57:39.338Z,990.25
2018-02-11T04:58:39.944Z,990.12
2018-02-11T04:59:40.549Z,990.28
2018-02-11T05:00:41.140Z,990.25
2018-02-11T05:01:41.740Z,990.64
2018-02-11T05:02:42.340Z,990.33
2018-02-11T05:03:42.945Z,990.20
2018-02-11T05:04:43.542Z,990.15
2018-02-11T05:05:44.130Z,990.06
2018-02-11T05:06:44.719Z,990.07
2018-02-11T05:07:45.320Z,990.17
2018-02-11T05:08:45.922Z,990.20
2018-02-11T05:09:46.508Z,990.20
2018-02-11T05:10:47.103Z,990.16
2018-02-11T05:11:47.703Z,990.10
2018-02-11T05:12:48.303Z,990.19
2018-02-11T05:13:48.898Z,989.96
2018-02-11T05:14:49.492Z,990.10
2018-02-11T05:15:50.093Z,990.04
2018-02-11T05:16:50.678Z,990.14
2018-02-11T05:17:51.283Z,989.98
2018-02-11T05:18:51.881Z,989.95
2018-02-11T05:19:52.484Z,989.93
2018-02-11T05:20:53.085Z,990.04
2018-02-11T05:21:53.683Z,990.04
2018-02-11T05:22:54.282Z,989.98
2018-02-11T05:23:54.883Z,989.97
2018-02-11T05:24:55.472Z,989.98
2018-02-11T05:25:56.064Z,990.01
2018-02-11T05:26:56.662Z,990.00
2018-02-11T05:27:57.255Z,990.04
2018-02-11T05:28:57.855Z,989.89
2018-02-11T05:29:58.453Z,990.09
2018-02-11T05:30:59.049Z,990.14
2018-02-11T05:31:59.641Z,990.02
2018-02-11T05:33:00.234Z,989.98
2018-02-11T05:34:00.829Z,989.92
2018-02-11T05:35:01.421Z,989.92
2018-02-11T05:36:02.008Z,989.91
2018-02-11T05:37:02.615Z,989.88
2018-02-11T05:38:03.209Z,989.96
2018-02-11T05:39:03.803Z,989.95
2018-02-11T05:40:04.397Z,989.86
2018-02-11T05:41:04.992Z,990.01
2018-02-11T05:42:05.574Z,989.92
2018-02-11T05:43:06.166Z,989.95
2018-02-11T05:44:06.772Z,990.03
2018-02-11T05:45:07.371Z,989.92
2018-02-11T05:46:07.977Z,990.05
2018-02-11T05:47:08.568Z,990.01
2018-02-11T05:48:09.184Z,990.05
2018-02-11T05:49:09.768Z,989.97
2018-02-11T05:50:10.369Z,990.06
2018-02-11T05:51:10.966Z,990.12
2018-02-11T05:52:11.562Z,989.96
2018-02-11T05:53:12.171Z,990.11
2018-02-11T05:54:12.753Z,990.10
2018-02-11T05:55:13.343Z,990.01
2018-02-11T05:56:13.938Z,990.07
2018-02-11T05:57:14.526Z,990.12
2018-02-11T05:58:15.129Z,990.06
2018-02-11T05:59:15.729Z,990.00
2018-02-11T06:00:16.333Z,990.19
2018-02-11T06:01:16.934Z,990.05
2018-02-11T06:02:17.523Z,989.90
2018-02-11T06:03:18.112Z,990.07
2018-02-11T06:04:18.719Z,990.05
2018-02-11T06:05:19.324Z,990.03
2018-02-11T06:06:19.915Z,990.03
2018-02-11T06:07:20.514Z,989.99
2018-02-11T06:08:21.115Z,990.04
2018-02-11T06:09:21.699Z,990.03
2018-02-11T06:10:22.297Z,989.90
2018-02-11T06:11:22.898Z,989.77
2018-02-11T06:12:23.494Z,989.85
2018-02-11T06:13:24.097Z,989.91
2018-02-11T06:14:24.689Z,989.93
2018-02-11T06:15:25.284Z,990.00
2018-02-11T06:16:25.896Z,989.79
2018-02-11T06:17:26.488Z,990.00
2018-02-11T06:18:27.087Z,989.96
2018-02-11T06:19:27.692Z,989.96
2018-02-11T06:20:28.288Z,989.95
2018-02-11T06:21:28.877Z,990.02
2018-02-11T06:22:29.467Z,989.91
2018-02-11T06:23:30.068Z,989.93
2018-02-11T06:24:30.663Z,990.01
2018-02-11T06:25:31.268Z,990.06
2018-02-11T06:26:31.867Z,990.07
2018-02-11T06:27:32.465Z,990.14
2018-02-11T06:28:33.055Z,990.06
2018-02-11T06:29:33.654Z,990.09
2018-02-11T06:30:34.257Z,990.11
2018-02-11T06:31:34.860Z,990.01
2018-02-11T06:32:35.457Z,990.05
2018-02-11T06:33:36.066Z,990.00
2018-02-11T06:34:36.657Z,990.10
2018-02-11T06:35:37.248Z,990.04
2018-02-11T06:36:37.854Z,990.14
2018-02-11T06:37:38.444Z,990.10
2018-02-11T06:38:39.047Z,990.06
2018-02-11T06:39:39.649Z,990.23
2018-02-11T06:40:40.253Z,990.14
2018-02-11T06:41:40.854Z,990.14
2018-02-11T06:42:41.453Z,990.15
2018-02-11T06:43:42.053Z,990.07
2018-02-11T06:44:42.657Z,990.18
2018-02-11T06:45:43.247Z,990.11
2018-02-11T06:46:43.840Z,990.12
2018-02-11T06:47:44.445Z,990.09
2018-02-11T06:48:45.045Z,989.98
2018-02-11T06:49:45.646Z,990.08
2018-02-11T06:50:46.245Z,990.08
2018-02-11T06:51:46.843Z,990.02
2018-02-11T06:52:47.445Z,990.11
2018-02-11T06:53:48.037Z,990.06
2018-02-11T06:54:48.639Z,990.15
2018-02-11T06:55:49.237Z,990.12
2018-02-11T06:56:49.835Z,990.14
2018-02-11T06:57:50.423Z,990.26
2018-02-11T06:58:51.014Z,990.35
2018-02-11T06:59:51.610Z,990.43
2018-02-11T07:00:52.213Z,990.49
2018-02-11T07:01:52.817Z,990.46
2018-02-11T07:02:53.414Z,990.48
2018-02-11T07:03:54.022Z,990.46
2018-02-11T07:04:54.676Z,990.44
2018-02-11T07:05:55.227Z,990.42
2018-02-11T07:06:55.831Z,990.58
2018-02-11T07:07:56.431Z,990.50
2018-02-11T07:08:57.025Z,990.46
2018-02-11T07:09:57.628Z,990.46
2018-02-11T07:10:58.227Z,990.43
2018-02-11T07:11:58.816Z,990.39
2018-02-11T07:12:59.414Z,990.38
2018-02-11T07:14:00.003Z,990.41
2018-02-11T07:15:00.601Z,990.32
2018-02-11T07:16:01.204Z,990.48
2018-02-11T07:17:01.803Z,990.36
2018-02-11T07:18:02.408Z,990.41
2018-02-11T07:19:03.012Z,990.28
2018-02-11T07:20:03.607Z,990.33
2018-02-11T07:21:04.210Z,990.36
2018-02-11T07:22:04.815Z,990.41
2018-02-11T07:23:05.418Z,990.44
2018-02-11T07:24:06.019Z,990.38
2018-02-11T07:25:06.623Z,990.45
2018-02-11T07:26:07.226Z,990.40
2018-02-11T07:27:07.831Z,990.42
2018-02-11T07:28:08.448Z,990.39
2018-02-11T07:29:09.044Z,990.32
2018-02-11T07:30:09.647Z,990.41
2018-02-11T07:31:10.252Z,990.52
2018-02-11T07:32:10.855Z,990.52
2018-02-11T07:33:11.453Z,990.46
2018-02-11T07:34:12.055Z,990.40
2018-02-11T07:35:12.650Z,990.56
2018-02-11T07:36:13.256Z,990.56
2018-02-11T07:37:13.857Z,990.57
2018-02-11T07:38:14.464Z,990.61
2018-02-11T07:39:15.063Z,990.59
2018-02-11T07:40:15.654Z,990.57
2018-02-11T07:41:16.257Z,990.53
2018-02-11T07:42:16.848Z,990.60
2018-02-11T07:43:17.456Z,990.60
2018-02-11T07:44:18.058Z,990.66
2018-02-11T07:45:18.659Z,990.64
2018-02-11T07:46:19.259Z,990.61
2018-02-11T07:47:19.856Z,990.67
2018-02-11T07:48:20.460Z,990.56
2018-02-11T07:49:21.057Z,990.65
2018-02-11T07:50:21.661Z,990.66
2018-02-11T07:51:22.262Z,990.58
2018-02-11T07:52:22.859Z,990.52
2018-02-11T07:53:23.457Z,990.58
2018-02-11T07:54:24.050Z,990.63
2018-02-11T07:55:24.658Z,990.54
2018-02-11T07:56:25.262Z,990.58
2018-02-11T07:57:25.860Z,990.51
2018-02-11T07:58:26.460Z,990.57
2018-02-11T07:59:27.071Z,990.61
2018-02-11T08:00:27.672Z,990.70
2018-02-11T08:01:28.279Z,990.67
2018-02-11T08:02:28.888Z,990.76
2018-02-11T08:03:29.502Z,990.63
2018-02-11T08:04:30.097Z,990.74
2018-02-11T08:05:30.701Z,990.73
2018-02-11T08:06:31.297Z,990.81
2018-02-11T08:07:31.902Z,990.77
2018-02-11T08:08:32.511Z,990.76
2018-02-11T08:09:33.127Z,990.75
2018-02-11T08:10:33.730Z,990.91
2018-02-11T08:11:34.308Z,990.96
2018-02-11T08:12:34.903Z,990.93
2018-02-11T08:13:35.510Z,990.96
2018-02-11T08:14:36.120Z,990.96
2018-02-11T08:15:36.725Z,991.06
2018-02-11T08:16:37.319Z,991.09
2018-02-11T08:17:37.927Z,991.04
2018-02-11T08:18:38.515Z,991.06
2018-02-11T08:19:39.114Z,991.06
2018-02-11T08:20:39.720Z,991.03
2018-02-11T08:21:40.332Z,991.09
2018-02-11T08:22:40.935Z,991.01
2018-02-11T08:23:41.538Z,991.03
2018-02-11T08:24:42.142Z,991.05
2018-02-11T08:25:42.746Z,991.09
2018-02-11T08:26:43.351Z,991.08
2018-02-11T08:27:43.956Z,991.14
2018-02-11T08:28:44.555Z,991.14
2018-02-11T08:29:45.162Z,991.17
2018-02-11T08:30:45.767Z,991.18
2018-02-11T08:31:46.368Z,991.16
2018-02-11T08:32:46.960Z,991.19
2018-02-11T08:33:47.570Z,991.27
2018-02-11T08:34:48.182Z,991.22
2018-02-11T08:35:48.783Z,991.15
2018-02-11T08:36:49.383Z,991.15
2018-02-11T08:37:49.999Z,991.18
2018-02-11T08:38:50.598Z,991.18
2018-02-11T08:39:51.195Z,991.16
2018-02-11T08:40:51.802Z,991.11
2018-02-11T08:41:52.401Z,991.14
2018-02-11T08:42:53.007Z,991.06
2018-02-11T08:43:53.611Z,991.05
2018-02-11T08:44:54.221Z,991.16
2018-02-11T08:45:54.831Z,991.08
2018-02-11T08:46:55.446Z,991.12
2018-02-11T08:47:56.046Z,991.01
2018-02-11T08:48:56.640Z,991.14
2018-02-11T08:49:57.246Z,991.10
2018-02-11T08:50:57.853Z,991.08
2018-02-11T08:51:58.442Z,991.17
2018-02-11T08:52:59.049Z,991.03
2018-02-11T08:53:59.658Z,991.11
2018-02-11T08:55:00.263Z,991.07
2018-02-11T08:56:00.860Z,991.16
2018-02-11T08:57:01.471Z,991.12
2018-02-11T08:58:02.078Z,991.06
2018-02-11T08:59:02.683Z,991.10
2018-02-11T09:00:03.287Z,991.22
2018-02-11T09:01:03.881Z,991.19
2018-02-11T09:02:04.477Z,991.12
2018-02-11T09:03:05.080Z,991.18
2018-02-11T09:04:05.721Z,991.20
2018-02-11T09:05:06.307Z,991.23
2018-02-11T09:06:06.902Z,991.15
2018-02-11T09:07:07.520Z,991.22
2018-02-11T09:08:08.103Z,991.29
2018-02-11T09:09:08.713Z,991.15
2018-02-11T09:10:09.322Z,991.14
2018-02-11T09:11:09.931Z,991.16
2018-02-11T09:12:10.532Z,991.17
2018-02-11T09:13:11.142Z,991.17
2018-02-11T09:14:11.747Z,991.22
2018-02-11T09:15:12.349Z,991.19
2018-02-11T09:16:12.949Z,991.25
2018-02-11T09:17:13.560Z,991.19
2018-02-11T09:18:14.161Z,991.26
2018-02-11T09:19:14.775Z,991.21
2018-02-11T09:20:15.382Z,991.21
2018-02-11T09:21:15.990Z,991.19
2018-02-11T09:22:16.597Z,991.23
2018-02-11T09:23:17.199Z,991.19
2018-02-11T09:24:17.807Z,991.21
2018-02-11T09:25:18.412Z,991.25
2018-02-11T09:26:19.025Z,991.26
2018-02-11T09:27:19.639Z,991.21
2018-02-11T09:28:20.230Z,991.21
2018-02-11T09:29:20.848Z,991.22
2018-02-11T09:30:21.437Z,991.24
2018-02-11T09:31:22.029Z,991.17
2018-02-11T09:32:22.630Z,991.20
2018-02-11T09:33:23.235Z,991.20
2018-02-11T09:34:23.837Z,991.23
2018-02-11T09:35:24.454Z,991.15
2018-02-11T09:36:25.056Z,991.19
2018-02-11T09:37:25.660Z,991.17
2018-02-11T09:38:26.262Z,991.20
2018-02-11T09:39:26.871Z,991.14
2018-02-11T09:40:27.479Z,991.19
2018-02-11T09:41:28.086Z,991.22
2018-02-11T09:42:28.688Z,991.22
2018-02-11T09:43:29.297Z,991.17
2018-02-11T09:44:29.907Z,991.19
2018-02-11T09:45:30.513Z,991.17
2018-02-11T09:46:31.114Z,991.18
2018-02-11T09:47:31.716Z,991.20
2018-02-11T09:48:32.319Z,991.19
2018-02-11T09:49:32.918Z,991.20
2018-02-11T09:50:33.512Z,991.15
2018-02-11T09:51:34.110Z,991.19
2018-02-11T09:52:34.720Z,991.22
2018-02-11T09:53:35.327Z,991.28
2018-02-11T09:54:35.949Z,991.17
2018-02-11T09:55:36.545Z,991.22
2018-02-11T09:56:37.155Z,991.20
2018-02-11T09:57:37.767Z,991.25
2018-02-11T09:58:38.381Z,991.22
2018-02-11T09:59:38.989Z,991.25
2018-02-11T10:00:39.594Z,991.25
2018-02-11T10:01:40.195Z,991.31
2018-02-11T10:02:40.794Z,991.31
2018-02-11T10:03:41.397Z,991.29
2018-02-11T10:04:42.052Z,991.22
2018-02-11T10:05:42.620Z,991.30
2018-02-11T10:06:43.225Z,991.21
2018-02-11T10:07:43.829Z,991.35
2018-02-11T10:08:44.425Z,991.32
2018-02-11T10:09:45.032Z,991.28
2018-02-11T10:10:45.639Z,991.27
2018-02-11T10:11:46.240Z,991.41
2018-02-11T10:12:46.850Z,991.34
2018-02-11T10:13:47.458Z,991.25
2018-02-11T10:14:48.066Z,991.38
2018-02-11T10:15:48.661Z,991.36
2018-02-11T10:16:49.273Z,991.34
2018-02-11T10:17:49.869Z,991.32
2018-02-11T10:18:50.468Z,991.35
2018-02-11T10:19:51.085Z,991.34
2018-02-11T10:20:51.695Z,991.31
2018-02-11T10:21:52.310Z,991.38
2018-02-11T10:22:52.906Z,991.38
2018-02-11T10:23:53.518Z,991.34
2018-02-11T10:24:54.142Z,991.41
2018-02-11T10:25:54.745Z,991.38
2018-02-11T10:26:55.350Z,991.38
2018-02-11T10:27:55.954Z,991.48
2018-02-11T10:28:56.556Z,991.41
2018-02-11T10:29:57.166Z,991.43
2018-02-11T10:30:57.771Z,991.43
2018-02-11T10:31:58.385Z,991.45
2018-02-11T10:32:58.994Z,991.47
2018-02-11T10:33:59.645Z,991.46
2018-02-11T10:35:00.206Z,991.54
2018-02-11T10:36:00.808Z,991.46
2018-02-11T10:37:01.409Z,991.45
2018-02-11T10:38:02.015Z,991.48
2018-02-11T10:39:02.623Z,991.47
2018-02-11T10:40:03.222Z,991.46
2018-02-11T10:41:03.833Z,991.54
2018-02-11T10:42:04.478Z,991.41
2018-02-11T10:43:05.052Z,991.43
2018-02-11T10:44:05.656Z,991.43
2018-02-11T10:45:06.273Z,991.56
2018-02-11T10:46:06.876Z,991.57
2018-02-11T10:47:07.480Z,991.67
2018-02-11T10:48:08.086Z,991.59
2018-02-11T10:49:08.696Z,991.52
2018-02-11T10:50:09.300Z,991.65
2018-02-11T10:51:09.910Z,991.61
2018-02-11T10:52:10.521Z,991.61
2018-02-11T10:53:11.121Z,991.67
2018-02-11T10:54:11.737Z,991.65
2018-02-11T10:55:12.338Z,991.68
2018-02-11T10:56:12.942Z,991.67
2018-02-11T10:57:13.553Z,991.64
2018-02-11T10:58:14.166Z,991.67
2018-02-11T10:59:14.774Z,991.66
2018-02-11T11:00:15.388Z,991.70
2018-02-11T11:01:15.988Z,991.63
2018-02-11T11:02:16.597Z,991.65
2018-02-11T11:03:17.202Z,991.71
2018-02-11T11:04:17.821Z,991.67
2018-02-11T11:05:18.433Z,991.60
2018-02-11T11:06:19.035Z,991.63
2018-02-11T11:07:19.650Z,991.64
2018-02-11T11:08:20.255Z,991.51
2018-02-11T11:09:20.860Z,991.60
2018-02-11T11:10:21.473Z,991.70
2018-02-11T11:11:22.085Z,991.65
2018-02-11T11:12:22.699Z,991.66
2018-02-11T11:13:23.306Z,991.66
2018-02-11T11:14:23.918Z,991.73
2018-02-11T11:15:24.530Z,991.61
2018-02-11T11:16:25.127Z,991.63
2018-02-11T11:17:25.737Z,991.70
2018-02-11T11:18:26.349Z,991.62
2018-02-11T11:19:26.968Z,991.65
2018-02-11T11:20:27.578Z,991.69
2018-02-11T11:21:28.198Z,991.62
2018-02-11T11:22:28.815Z,991.63
2018-02-11T11:23:29.428Z,991.63
2018-02-11T11:24:30.024Z,991.56
2018-02-11T11:25:30.638Z,991.59
2018-02-11T11:26:31.253Z,991.60
2018-02-11T11:27:31.862Z,991.64
2018-02-11T11:28:32.472Z,991.67
2018-02-11T11:29:33.076Z,991.65
2018-02-11T11:30:33.695Z,991.72
2018-02-11T11:31:34.308Z,991.61
2018-02-11T11:32:34.921Z,991.61
2018-02-11T11:33:35.535Z,991.69
2018-02-11T11:34:36.142Z,991.63
2018-02-11T11:35:36.751Z,991.74
2018-02-11T11:36:37.350Z,991.71
2018-02-11T11:37:37.957Z,991.68
2018-02-11T11:38:38.573Z,991.64
2018-02-11T11:39:39.174Z,991.57
2018-02-11T11:40:39.789Z,991.68
2018-02-11T11:41:40.394Z,991.64
2018-02-11T11:42:41.007Z,991.67
2018-02-11T11:43:41.608Z,991.66
2018-02-11T11:44:42.218Z,991.71
2018-02-11T11:45:42.826Z,991.72
2018-02-11T11:46:43.430Z,991.77
2018-02-11T11:47:44.037Z,991.77
2018-02-11T11:48:44.650Z,991.77
2018-02-11T11:49:45.254Z,991.78
2018-02-11T11:50:45.861Z,991.74
2018-02-11T11:51:46.471Z,991.75
2018-02-11T11:52:47.087Z,991.72
2018-02-11T11:53:47.690Z,991.81
2018-02-11T11:54:48.324Z,991.79
2018-02-11T11:55:48.909Z,991.72
2018-02-11T11:56:49.522Z,991.68
2018-02-11T11:57:50.133Z,991.77
2018-02-11T11:58:50.738Z,991.80
2018-02-11T11:59:51.353Z,991.77
2018-02-11T12:00:51.960Z,991.81
2018-02-11T12:01:52.564Z,991.91
2018-02-11T12:02:53.183Z,991.72
2018-02-11T12:03:53.800Z,991.83
2018-02-11T12:04:54.408Z,991.79
2018-02-11T12:05:55.018Z,991.84
2018-02-11T12:06:55.620Z,991.64
2018-02-11T12:07:56.224Z,991.73
2018-02-11T12:08:56.835Z,991.76
2018-02-11T12:09:57.434Z,991.81
2018-02-11T12:10:58.040Z,991.83
2018-02-11T12:11:58.646Z,991.84
2018-02-11T12:12:59.255Z,991.80
2018-02-11T12:13:59.860Z,991.83
2018-02-11T12:15:00.473Z,991.82
2018-02-11T12:16:01.117Z,991.80
2018-02-11T12:17:01.703Z,991.89
2018-02-11T12:18:02.315Z,991.87
2018-02-11T12:19:02.933Z,991.87
2018-02-11T12:20:03.541Z,991.83
2018-02-11T12:21:04.147Z,991.91
2018-02-11T12:22:04.752Z,991.83
2018-02-11T12:23:05.358Z,991.75
2018-02-11T12:24:05.969Z,991.84
2018-02-11T12:25:06.612Z,991.75
2018-02-11T12:26:07.169Z,991.86
2018-02-11T12:27:07.799Z,991.77
2018-02-11T12:28:08.453Z,991.81
2018-02-11T12:29:09.104Z,991.82
2018-02-11T12:30:09.633Z,991.65
2018-02-11T12:31:10.246Z,991.77
2018-02-11T12:32:10.856Z,991.73
2018-02-11T12:33:11.472Z,991.81
2018-02-11T12:34:12.072Z,991.80
2018-02-11T12:35:12.682Z,991.78
2018-02-11T12:36:13.287Z,991.80